Time;durP1;ratioP1;P1;durP2;ratioP2;P2;SDS_P1;SDS_P2;PMS_P1;PMS_P2;Temp;Humidity;BMP_temperature;BMP_pressure;BME280_temperature;BME280_humidity;BME280_pressure;Samples;Min_cycle;Max_cycle;Signal;HPM_P1;HPM_P2
2022/09/21 00:01:13;;;;;;;0.83;0.83;;;;;;;;;;5066997;28;20202;-61
2022/09/21 00:03:42;;;;;;;2.00;0.60;;;;;;;;;;5077030;28;20720;-61
2022/09/21 00:06:11;;;;;;;0.60;0.60;;;;;;;;;;5069558;28;20202;-61
2022/09/21 00:08:41;;;;;;;3.10;0.80;;;;;;;;;;5068624;28;20202;-61
2022/09/21 00:11:11;;;;;;;1.27;0.67;;;;;;;;;;5077710;28;20537;-60
2022/09/21 00:13:41;;;;;;;2.80;0.83;;;;;;;;;;5058366;28;20222;-61
2022/09/21 00:16:09;;;;;;;3.70;0.90;;;;;;;;;;5066268;28;20208;-61
2022/09/21 00:18:37;;;;;;;2.33;0.83;;;;;;;;;;5058347;28;20209;-61
2022/09/21 00:21:06;;;;;;;1.30;0.50;;;;;;;;;;5065709;28;20202;-61
2022/09/21 00:23:34;;;;;;;0.90;0.90;;;;;;;;;;5061055;28;20210;-61
2022/09/21 00:26:08;;;;;;;0.70;0.70;;;;;;;;;;5062841;28;20207;-61
2022/09/21 00:28:36;;;;;;;1.30;0.80;;;;;;;;;;5075894;28;20212;-61
2022/09/21 00:31:05;;;;;;;0.70;0.70;;;;;;;;;;5068879;28;20206;-61
2022/09/21 00:33:34;;;;;;;0.83;0.70;;;;;;;;;;5060582;28;20694;-61
2022/09/21 00:36:03;;;;;;;2.07;1.23;;;;;;;;;;5063961;28;20205;-60
2022/09/21 00:38:31;;;;;;;2.30;0.97;;;;;;;;;;5066126;28;20212;-61
2022/09/21 00:40:59;;;;;;;1.27;0.80;;;;;;;;;;5071198;28;20198;-60
2022/09/21 00:43:28;;;;;;;2.67;0.77;;;;;;;;;;5060458;28;20226;-60
2022/09/21 00:46:00;;;;;;;2.70;1.00;;;;;;;;;;5069360;28;20210;-60
2022/09/21 00:48:29;;;;;;;1.23;0.87;;;;;;;;;;5076061;28;20599;-61
2022/09/21 00:51:00;;;;;;;2.70;0.90;;;;;;;;;;5069864;28;20194;-60
2022/09/21 00:53:28;;;;;;;0.93;0.87;;;;;;;;;;5068173;28;20219;-58
2022/09/21 00:55:57;;;;;;;3.03;1.10;;;;;;;;;;5064672;28;20546;-58
2022/09/21 00:58:27;;;;;;;1.23;1.10;;;;;;;;;;5073478;28;20217;-58
2022/09/21 01:00:57;;;;;;;1.07;0.97;;;;;;;;;;5057639;28;20199;-58
2022/09/21 01:03:26;;;;;;;1.67;1.20;;;;;;;;;;5065001;28;20229;-58
2022/09/21 01:05:54;;;;;;;1.93;1.17;;;;;;;;;;5057363;28;20199;-58
2022/09/21 01:08:23;;;;;;;1.90;1.30;;;;;;;;;;5065127;28;20203;-58
2022/09/21 01:11:02;;;;;;;3.53;1.40;;;;;;;;;;5067054;28;20210;-58
2022/09/21 01:13:43;;;;;;;1.53;1.37;;;;;;;;;;5068519;28;20222;-58
2022/09/21 01:16:13;;;;;;;3.03;1.00;;;;;;;;;;5060628;28;20203;-58
2022/09/21 01:18:44;;;;;;;4.87;0.90;;;;;;;;;;5064658;28;20616;-58
2022/09/21 01:21:19;;;;;;;2.53;0.80;;;;;;;;;;5062571;28;20198;-58
2022/09/21 01:24:05;;;;;;;2.80;1.10;;;;;;;;;;5058197;28;20248;-58
2022/09/21 01:26:41;;;;;;;1.27;1.07;;;;;;;;;;5034476;28;20202;-58
2022/09/21 01:29:19;;;;;;;1.40;0.70;;;;;;;;;;5052275;28;20199;-59
2022/09/21 01:31:50;;;;;;;1.93;0.77;;;;;;;;;;5073431;28;20281;-58
2022/09/21 01:34:22;;;;;;;0.90;0.90;;;;;;;;;;5064468;28;20222;-58
2022/09/21 01:36:51;;;;;;;0.70;0.70;;;;;;;;;;5070907;28;20202;-58
2022/09/21 01:39:20;;;;;;;3.63;0.93;;;;;;;;;;5057182;28;20209;-58
2022/09/21 01:41:50;;;;;;;4.13;0.80;;;;;;;;;;5059041;28;20209;-58
2022/09/21 01:44:21;;;;;;;3.10;1.03;;;;;;;;;;5062257;28;20654;-58
2022/09/21 01:46:50;;;;;;;3.40;0.80;;;;;;;;;;5064563;28;20198;-58
2022/09/21 01:49:19;;;;;;;2.03;0.80;;;;;;;;;;5061663;28;20209;-58
2022/09/21 01:51:50;;;;;;;1.27;0.83;;;;;;;;;;5067728;28;20205;-58
2022/09/21 01:54:20;;;;;;;2.03;0.87;;;;;;;;;;5063110;28;20250;-58
2022/09/21 01:56:51;;;;;;;0.73;0.73;;;;;;;;;;5064296;28;20250;-58
2022/09/21 01:59:22;;;;;;;2.93;1.00;;;;;;;;;;5064102;28;20651;-58
2022/09/21 02:01:52;;;;;;;1.00;0.70;;;;;;;;;;5064830;28;20209;-58
2022/09/21 02:04:20;;;;;;;1.20;0.93;;;;;;;;;;5062672;28;20226;-58
2022/09/21 02:06:49;;;;;;;0.70;0.70;;;;;;;;;;5064557;28;20207;-61
2022/09/21 02:09:17;;;;;;;3.00;0.80;;;;;;;;;;5068323;28;20213;-58
2022/09/21 02:11:45;;;;;;;3.37;0.80;;;;;;;;;;5075080;28;20202;-61
2022/09/21 02:14:16;;;;;;;0.97;0.70;;;;;;;;;;5059122;28;20218;-60
2022/09/21 02:16:48;;;;;;;2.93;0.80;;;;;;;;;;5066667;28;20202;-61
2022/09/21 02:19:22;;;;;;;2.40;0.90;;;;;;;;;;5069873;28;20694;-61
2022/09/21 02:21:57;;;;;;;1.57;0.90;;;;;;;;;;5055050;28;20203;-58
2022/09/21 02:24:30;;;;;;;3.20;1.00;;;;;;;;;;5064027;28;20226;-60
2022/09/21 02:27:02;;;;;;;2.53;1.00;;;;;;;;;;5073973;28;20202;-58
2022/09/21 02:29:32;;;;;;;1.47;1.00;;;;;;;;;;5056503;28;20210;-59
2022/09/21 02:32:06;;;;;;;1.83;0.80;;;;;;;;;;5066657;28;20195;-60
2022/09/21 02:34:36;;;;;;;3.90;1.00;;;;;;;;;;5065473;28;20596;-58
2022/09/21 02:37:08;;;;;;;0.80;0.63;;;;;;;;;;5063767;28;20199;-57
2022/09/21 02:39:39;;;;;;;2.30;1.10;;;;;;;;;;5072334;28;20229;-57
2022/09/21 02:42:09;;;;;;;1.57;0.80;;;;;;;;;;5076533;28;20205;-56
2022/09/21 02:44:40;;;;;;;1.27;0.70;;;;;;;;;;5073792;28;20681;-56
2022/09/21 02:47:13;;;;;;;2.40;1.03;;;;;;;;;;5078175;28;20201;-56
2022/09/21 02:49:42;;;;;;;1.50;0.90;;;;;;;;;;5074238;28;20207;-56
2022/09/21 02:52:12;;;;;;;1.33;1.10;;;;;;;;;;5069420;28;20585;-56
2022/09/21 02:54:41;;;;;;;3.70;0.90;;;;;;;;;;5059916;28;20571;-58
2022/09/21 02:57:11;;;;;;;2.10;0.77;;;;;;;;;;5070151;28;20205;-59
2022/09/21 02:59:40;;;;;;;1.30;1.03;;;;;;;;;;5055997;28;20670;-59
2022/09/21 03:02:11;;;;;;;2.60;1.20;;;;;;;;;;5061590;28;20210;-59
2022/09/21 03:04:40;;;;;;;1.10;1.00;;;;;;;;;;5055499;28;20686;-59
2022/09/21 03:07:08;;;;;;;1.60;1.17;;;;;;;;;;5060733;28;20199;-59
2022/09/21 03:09:36;;;;;;;2.93;1.37;;;;;;;;;;5070994;28;20212;-58
2022/09/21 03:12:04;;;;;;;2.67;1.50;;;;;;;;;;5070449;28;20206;-59
2022/09/21 03:14:32;;;;;;;5.63;1.67;;;;;;;;;;5057733;28;20214;-59
2022/09/21 03:17:00;;;;;;;1.83;1.23;;;;;;;;;;5071024;28;20198;-58
2022/09/21 03:19:29;;;;;;;5.77;2.43;;;;;;;;;;5059834;28;20206;-58
2022/09/21 03:21:58;;;;;;;2.37;1.37;;;;;;;;;;5067399;28;20210;-59
2022/09/21 03:27:13;;;;;;;3.50;1.50;;;;;;;;;;5062170;28;20207;-58
2022/09/21 03:29:41;;;;;;;2.07;1.40;;;;;;;;;;5070063;28;20202;-59
2022/09/21 03:32:09;;;;;;;1.93;1.83;;;;;;;;;;5061383;28;20591;-59
2022/09/21 03:34:39;;;;;;;3.47;2.20;;;;;;;;;;5061949;28;20276;-58
2022/09/21 03:37:08;;;;;;;4.30;1.50;;;;;;;;;;5057981;28;20705;-59
2022/09/21 03:39:36;;;;;;;4.07;1.70;;;;;;;;;;5060463;28;20241;-59
2022/09/21 03:42:04;;;;;;;1.90;1.50;;;;;;;;;;5059934;28;20592;-58
2022/09/21 03:44:32;;;;;;;3.80;1.53;;;;;;;;;;5059107;28;20218;-58
2022/09/21 03:47:01;;;;;;;1.90;1.80;;;;;;;;;;5058724;28;20203;-58
2022/09/21 03:49:33;;;;;;;1.77;1.20;;;;;;;;;;5060242;28;20243;-58
2022/09/21 03:52:03;;;;;;;2.20;1.27;;;;;;;;;;5058471;28;20198;-58
2022/09/21 03:54:31;;;;;;;2.13;1.40;;;;;;;;;;5058161;28;20231;-58
2022/09/21 03:56:59;;;;;;;9.93;1.40;;;;;;;;;;5060049;28;20195;-58
2022/09/21 03:59:30;;;;;;;2.77;1.27;;;;;;;;;;5055557;28;20557;-59
2022/09/21 04:01:58;;;;;;;3.73;1.53;;;;;;;;;;5058740;28;20199;-58
2022/09/21 04:04:27;;;;;;;3.03;1.20;;;;;;;;;;5058858;28;20693;-58
2022/09/21 04:06:55;;;;;;;1.03;0.93;;;;;;;;;;5062482;28;20207;-58
2022/09/21 04:09:24;;;;;;;1.23;1.13;;;;;;;;;;5060466;28;20580;-59
2022/09/21 04:11:53;;;;;;;1.60;0.90;;;;;;;;;;5058968;28;20209;-58
2022/09/21 04:14:22;;;;;;;1.20;1.10;;;;;;;;;;5071547;28;20223;-58
2022/09/21 04:16:50;;;;;;;1.57;1.00;;;;;;;;;;5067038;28;20214;-58
2022/09/21 04:19:21;;;;;;;1.90;1.77;;;;;;;;;;5063068;28;20210;-58
2022/09/21 04:21:50;;;;;;;2.27;1.07;;;;;;;;;;5068571;28;20210;-58
2022/09/21 04:24:18;;;;;;;1.00;1.00;;;;;;;;;;5057666;28;20238;-58
2022/09/21 04:26:48;;;;;;;1.60;1.07;;;;;;;;;;5066124;28;20220;-58
2022/09/21 04:29:16;;;;;;;1.23;1.13;;;;;;;;;;5066344;28;20207;-59
2022/09/21 04:31:44;;;;;;;2.57;1.63;;;;;;;;;;5066424;28;20203;-58
2022/09/21 04:34:13;;;;;;;1.87;0.90;;;;;;;;;;5058059;28;20309;-58
2022/09/21 04:36:41;;;;;;;1.00;0.90;;;;;;;;;;5066768;28;20676;-58
2022/09/21 04:39:08;;;;;;;1.40;1.00;;;;;;;;;;5068394;28;20198;-58
2022/09/21 04:41:36;;;;;;;2.53;1.00;;;;;;;;;;5070050;28;20199;-59
2022/09/21 04:44:06;;;;;;;3.87;1.20;;;;;;;;;;5048702;28;20219;-58
2022/09/21 04:46:34;;;;;;;1.40;1.20;;;;;;;;;;5056684;28;20207;-58
2022/09/21 04:49:02;;;;;;;2.67;0.97;;;;;;;;;;5055352;28;20199;-58
2022/09/21 04:51:30;;;;;;;4.03;1.77;;;;;;;;;;5049675;28;20222;-58
2022/09/21 04:53:58;;;;;;;3.67;1.20;;;;;;;;;;5055854;28;20239;-58
2022/09/21 04:56:26;;;;;;;3.57;1.00;;;;;;;;;;5057438;28;20199;-58
2022/09/21 04:58:54;;;;;;;8.53;1.50;;;;;;;;;;5057346;28;20663;-58
2022/09/21 05:01:24;;;;;;;2.13;1.40;;;;;;;;;;5054286;28;20206;-58
2022/09/21 05:03:52;;;;;;;1.40;0.97;;;;;;;;;;5051439;28;20246;-58
2022/09/21 05:06:19;;;;;;;3.43;2.10;;;;;;;;;;5056426;28;20209;-58
2022/09/21 05:11:33;;;;;;;3.40;1.20;;;;;;;;;;5057359;28;20209;-58
2022/09/21 05:14:01;;;;;;;4.73;1.20;;;;;;;;;;5057390;28;20222;-59
2022/09/21 05:16:30;;;;;;;2.57;1.40;;;;;;;;;;5055019;28;20527;-59
2022/09/21 05:18:58;;;;;;;3.70;1.20;;;;;;;;;;5051243;28;20209;-59
2022/09/21 05:21:26;;;;;;;4.77;1.70;;;;;;;;;;5056777;28;20217;-61
2022/09/21 05:23:54;;;;;;;3.73;1.20;;;;;;;;;;5056595;28;20330;-60
2022/09/21 05:26:22;;;;;;;4.87;1.23;;;;;;;;;;5051426;28;20571;-58
2022/09/21 05:28:51;;;;;;;1.57;1.10;;;;;;;;;;5053825;28;20543;-59
2022/09/21 05:31:30;;;;;;;1.73;1.23;;;;;;;;;;5060307;28;20213;-58
2022/09/21 05:34:03;;;;;;;5.27;1.67;;;;;;;;;;5059468;28;20301;-58
2022/09/21 05:36:39;;;;;;;2.30;1.30;;;;;;;;;;5068400;28;20198;-59
2022/09/21 05:39:07;;;;;;;2.43;1.87;;;;;;;;;;5066204;28;20199;-59
2022/09/21 05:41:36;;;;;;;5.47;1.47;;;;;;;;;;5056527;28;20205;-58
2022/09/21 05:44:04;;;;;;;3.93;1.50;;;;;;;;;;5070830;28;20221;-59
2022/09/21 05:46:36;;;;;;;2.97;1.30;;;;;;;;;;5067911;28;20229;-60
2022/09/21 05:49:11;;;;;;;2.80;1.17;;;;;;;;;;5056161;28;20227;-59
2022/09/21 05:51:42;;;;;;;5.23;1.27;;;;;;;;;;5057406;28;20198;-59
2022/09/21 05:54:13;;;;;;;2.00;1.20;;;;;;;;;;5063533;28;20230;-60
2022/09/21 05:56:48;;;;;;;2.40;1.00;;;;;;;;;;5064629;28;20199;-59
2022/09/21 05:59:28;;;;;;;1.60;1.33;;;;;;;;;;5062671;28;20204;-59
2022/09/21 06:01:59;;;;;;;1.03;0.97;;;;;;;;;;5056536;28;20542;-59
2022/09/21 06:04:29;;;;;;;1.97;0.93;;;;;;;;;;5070963;28;20716;-59
2022/09/21 06:06:57;;;;;;;2.30;1.10;;;;;;;;;;5067086;28;20209;-59
2022/09/21 06:09:26;;;;;;;4.07;1.50;;;;;;;;;;5072208;28;20206;-59
2022/09/21 06:11:54;;;;;;;3.40;1.47;;;;;;;;;;5062529;28;20204;-59
2022/09/21 06:14:25;;;;;;;1.63;1.13;;;;;;;;;;5071429;28;20553;-59
2022/09/21 06:16:53;;;;;;;1.50;1.13;;;;;;;;;;5061008;28;20203;-59
2022/09/21 06:19:21;;;;;;;3.10;1.20;;;;;;;;;;5078256;28;20236;-59
2022/09/21 06:21:50;;;;;;;3.03;1.30;;;;;;;;;;5061429;28;20210;-59
2022/09/21 06:24:18;;;;;;;3.03;1.73;;;;;;;;;;5069884;28;20228;-59
2022/09/21 06:26:46;;;;;;;5.67;1.47;;;;;;;;;;5061702;28;20229;-59
2022/09/21 06:29:14;;;;;;;3.27;1.20;;;;;;;;;;5078547;28;20268;-60
2022/09/21 06:31:42;;;;;;;3.17;1.40;;;;;;;;;;5079243;28;20685;-59
2022/09/21 06:34:10;;;;;;;4.50;1.50;;;;;;;;;;5064154;28;20245;-59
2022/09/21 06:36:38;;;;;;;3.00;1.10;;;;;;;;;;5077145;28;20211;-59
2022/09/21 06:39:07;;;;;;;2.93;2.07;;;;;;;;;;5063248;28;20221;-59
2022/09/21 06:41:35;;;;;;;3.07;1.30;;;;;;;;;;5078457;28;20679;-59
2022/09/21 06:44:03;;;;;;;3.80;1.30;;;;;;;;;;5070863;28;20731;-59
2022/09/21 06:46:31;;;;;;;9.83;1.70;;;;;;;;;;5079490;28;20226;-59
2022/09/21 06:48:59;;;;;;;2.80;1.10;;;;;;;;;;5069853;28;20202;-59
2022/09/21 06:51:27;;;;;;;1.63;0.90;;;;;;;;;;5068054;28;20286;-59
2022/09/21 06:53:55;;;;;;;6.00;1.33;;;;;;;;;;5068068;28;20340;-59
2022/09/21 06:56:25;;;;;;;2.53;1.20;;;;;;;;;;5075238;28;20191;-59
2022/09/21 06:58:53;;;;;;;1.73;1.20;;;;;;;;;;5075927;28;20193;-59
2022/09/21 07:01:21;;;;;;;0.90;0.90;;;;;;;;;;5067916;28;20195;-59
2022/09/21 07:03:50;;;;;;;3.87;1.30;;;;;;;;;;5070706;28;20254;-59
2022/09/21 07:06:19;;;;;;;2.87;1.50;;;;;;;;;;5062365;28;20223;-59
2022/09/21 07:08:47;;;;;;;2.50;1.30;;;;;;;;;;5071106;28;20209;-59
2022/09/21 07:11:37;;;;;;;2.13;1.10;;;;;;;;;;5065262;28;20256;-59
2022/09/21 07:14:05;;;;;;;4.23;1.17;;;;;;;;;;5065483;28;20234;-59
2022/09/21 07:16:33;;;;;;;2.20;1.43;;;;;;;;;;5070686;28;20201;-59
2022/09/21 07:19:02;;;;;;;1.73;1.10;;;;;;;;;;5062590;28;20261;-59
2022/09/21 07:21:37;;;;;;;4.00;1.60;;;;;;;;;;5063781;28;20205;-59
2022/09/21 07:24:05;;;;;;;2.60;1.30;;;;;;;;;;5070448;28;20218;-59
2022/09/21 07:26:40;;;;;;;2.93;1.60;;;;;;;;;;5078716;28;20218;-59
2022/09/21 07:29:08;;;;;;;2.10;0.93;;;;;;;;;;5079082;28;20204;-59
2022/09/21 07:31:36;;;;;;;3.43;1.33;;;;;;;;;;5053557;28;20202;-59
2022/09/21 07:34:04;;;;;;;3.30;1.33;;;;;;;;;;5065958;28;20378;-59
2022/09/21 07:36:32;;;;;;;1.27;1.17;;;;;;;;;;5069884;28;20195;-59
2022/09/21 07:39:01;;;;;;;2.27;1.50;;;;;;;;;;5078182;28;20202;-59
2022/09/21 07:41:29;;;;;;;2.47;1.37;;;;;;;;;;5077415;28;20202;-59
2022/09/21 07:43:59;;;;;;;1.57;1.10;;;;;;;;;;5073313;28;20219;-61
2022/09/21 07:46:27;;;;;;;3.47;1.77;;;;;;;;;;5063549;28;20224;-61
2022/09/21 07:48:55;;;;;;;4.03;1.40;;;;;;;;;;5078829;28;20203;-61
2022/09/21 07:51:25;;;;;;;2.60;1.23;;;;;;;;;;5070293;28;20207;-61
2022/09/21 07:53:55;;;;;;;3.17;1.70;;;;;;;;;;5070137;28;20225;-58
2022/09/21 07:56:23;;;;;;;2.97;1.43;;;;;;;;;;5070748;28;20666;-60
2022/09/21 07:59:05;;;;;;;1.93;1.23;;;;;;;;;;5062183;28;20207;-58
2022/09/21 08:01:35;;;;;;;3.57;1.77;;;;;;;;;;5068850;28;20213;-60
2022/09/21 08:04:04;;;;;;;2.83;1.70;;;;;;;;;;5063796;28;20218;-58
2022/09/21 08:06:34;;;;;;;6.60;1.53;;;;;;;;;;5069471;28;20264;-59
2022/09/21 08:09:02;;;;;;;5.13;1.30;;;;;;;;;;5063151;28;20206;-59
2022/09/21 08:11:31;;;;;;;1.97;1.53;;;;;;;;;;5070238;28;20203;-60
2022/09/21 08:14:00;;;;;;;1.90;1.40;;;;;;;;;;5059097;28;20309;-58
2022/09/21 08:16:29;;;;;;;6.00;1.83;;;;;;;;;;5058747;28;20201;-58
2022/09/21 08:18:58;;;;;;;4.67;1.63;;;;;;;;;;5076569;28;20199;-60
2022/09/21 08:21:26;;;;;;;1.30;1.17;;;;;;;;;;5071511;28;20210;-59
2022/09/21 08:23:54;;;;;;;3.17;1.67;;;;;;;;;;5066967;28;20223;-60
2022/09/21 08:26:23;;;;;;;2.20;1.30;;;;;;;;;;5072209;28;20693;-61
2022/09/21 08:28:52;;;;;;;1.47;1.30;;;;;;;;;;5067906;28;20207;-60
2022/09/21 08:31:20;;;;;;;1.30;1.20;;;;;;;;;;5062023;28;20670;-60
2022/09/21 08:33:49;;;;;;;3.33;1.23;;;;;;;;;;5072917;28;20222;-60
2022/09/21 08:36:19;;;;;;;2.37;1.50;;;;;;;;;;5057017;28;20509;-60
2022/09/21 08:38:48;;;;;;;3.73;1.60;;;;;;;;;;5061914;28;20225;-60
2022/09/21 08:41:18;;;;;;;3.27;1.10;;;;;;;;;;5062448;28;20206;-60
2022/09/21 08:43:50;;;;;;;3.57;1.33;;;;;;;;;;5061513;28;20229;-60
2022/09/21 08:46:19;;;;;;;2.70;1.37;;;;;;;;;;5063339;28;20720;-60
2022/09/21 08:48:49;;;;;;;4.13;1.50;;;;;;;;;;5061049;28;20639;-60
2022/09/21 08:51:22;;;;;;;3.17;1.47;;;;;;;;;;5064014;28;20198;-60
2022/09/21 08:53:52;;;;;;;2.37;2.17;;;;;;;;;;5062352;28;20215;-60
2022/09/21 08:56:22;;;;;;;2.40;1.33;;;;;;;;;;5060639;28;20190;-60
2022/09/21 08:58:50;;;;;;;3.43;1.37;;;;;;;;;;5070118;28;20566;-60
2022/09/21 09:01:26;;;;;;;4.60;1.57;;;;;;;;;;5073307;28;20203;-60
2022/09/21 09:03:59;;;;;;;1.63;1.40;;;;;;;;;;5057730;28;20219;-60
2022/09/21 09:06:36;;;;;;;6.10;1.40;;;;;;;;;;5068261;28;20217;-60
2022/09/21 09:09:13;;;;;;;3.40;1.50;;;;;;;;;;5066298;28;20656;-60
2022/09/21 09:11:47;;;;;;;2.77;1.60;;;;;;;;;;5063953;28;20199;-60
2022/09/21 09:14:21;;;;;;;3.37;1.40;;;;;;;;;;5065635;28;20237;-60
2022/09/21 09:16:54;;;;;;;2.87;1.50;;;;;;;;;;5069312;28;20199;-60
2022/09/21 09:19:24;;;;;;;4.63;1.53;;;;;;;;;;5060027;28;20210;-60
2022/09/21 09:21:54;;;;;;;4.77;1.50;;;;;;;;;;5071281;28;20205;-60
2022/09/21 09:24:30;;;;;;;1.40;1.30;;;;;;;;;;5068068;28;20228;-60
2022/09/21 09:27:01;;;;;;;2.67;1.30;;;;;;;;;;5064645;28;20217;-60
2022/09/21 09:29:31;;;;;;;4.63;1.67;;;;;;;;;;5068333;28;20210;-60
2022/09/21 09:32:00;;;;;;;3.50;1.57;;;;;;;;;;5061641;28;20198;-60
2022/09/21 09:34:30;;;;;;;4.20;1.50;;;;;;;;;;5073469;28;20226;-60
2022/09/21 09:36:59;;;;;;;1.53;1.30;;;;;;;;;;5064418;28;20198;-60
2022/09/21 09:39:30;;;;;;;1.87;1.27;;;;;;;;;;5076816;28;20285;-60
2022/09/21 09:42:14;;;;;;;2.30;1.40;;;;;;;;;;5061886;28;20202;-60
2022/09/21 09:44:50;;;;;;;2.33;1.20;;;;;;;;;;5062590;28;20229;-60
2022/09/21 09:47:23;;;;;;;1.93;1.20;;;;;;;;;;5060265;28;20226;-60
2022/09/21 09:49:59;;;;;;;1.30;1.10;;;;;;;;;;5067215;28;20285;-60
2022/09/21 09:52:27;;;;;;;2.03;1.43;;;;;;;;;;5075059;28;20209;-60
2022/09/21 09:54:58;;;;;;;2.77;1.40;;;;;;;;;;5064836;28;20246;-60
2022/09/21 09:57:28;;;;;;;3.63;1.43;;;;;;;;;;5067130;28;20646;-60
2022/09/21 09:59:58;;;;;;;5.10;1.67;;;;;;;;;;5063300;28;20559;-60
2022/09/21 10:02:27;;;;;;;2.70;1.40;;;;;;;;;;5065779;28;20202;-60
2022/09/21 10:05:04;;;;;;;3.20;1.50;;;;;;;;;;5069379;28;20312;-60
2022/09/21 10:07:37;;;;;;;2.63;1.50;;;;;;;;;;5057477;28;20233;-60
2022/09/21 10:10:22;;;;;;;4.83;1.30;;;;;;;;;;5064287;28;20203;-59
2022/09/21 10:12:51;;;;;;;2.90;1.47;;;;;;;;;;5056893;28;20209;-59
2022/09/21 10:15:19;;;;;;;4.43;1.60;;;;;;;;;;5056877;28;20207;-58
2022/09/21 10:17:47;;;;;;;3.63;1.63;;;;;;;;;;5059974;28;20191;-58
2022/09/21 10:20:17;;;;;;;3.27;1.70;;;;;;;;;;5058540;28;20211;-58
2022/09/21 10:22:46;;;;;;;1.27;1.13;;;;;;;;;;5055832;28;20203;-58
2022/09/21 10:25:15;;;;;;;1.40;1.30;;;;;;;;;;5054607;28;20559;-58
2022/09/21 10:27:47;;;;;;;4.73;1.70;;;;;;;;;;5065506;28;20226;-58
2022/09/21 10:30:32;;;;;;;1.60;1.40;;;;;;;;;;5068328;28;20207;-58
2022/09/21 10:33:00;;;;;;;3.30;1.40;;;;;;;;;;5058618;28;20199;-58
2022/09/21 10:35:29;;;;;;;2.87;1.50;;;;;;;;;;5072916;28;20208;-58
2022/09/21 10:38:15;;;;;;;3.33;1.50;;;;;;;;;;5055973;28;20298;-58
2022/09/21 10:40:49;;;;;;;3.57;1.60;;;;;;;;;;5057437;28;20256;-58
2022/09/21 10:43:26;;;;;;;2.60;1.30;;;;;;;;;;5056828;28;20257;-57
2022/09/21 10:45:54;;;;;;;1.83;1.10;;;;;;;;;;5056273;28;20238;-59
2022/09/21 10:48:23;;;;;;;1.77;1.30;;;;;;;;;;5058314;28;20222;-59
2022/09/21 10:50:52;;;;;;;3.40;1.30;;;;;;;;;;5058477;28;20199;-60
2022/09/21 10:53:23;;;;;;;1.20;1.10;;;;;;;;;;5056352;28;20241;-60
2022/09/21 10:55:54;;;;;;;1.40;1.30;;;;;;;;;;5062576;28;20249;-59
2022/09/21 10:59:03;;;;;;;2.23;1.30;;;;;;;;;;5069011;28;20590;-59
2022/09/21 11:01:31;;;;;;;1.73;1.00;;;;;;;;;;5075839;28;20664;-59
2022/09/21 11:04:00;;;;;;;2.97;1.23;;;;;;;;;;5055195;28;20632;-59
2022/09/21 11:06:30;;;;;;;2.47;1.40;;;;;;;;;;5071847;28;20206;-58
2022/09/21 11:08:59;;;;;;;3.57;2.00;;;;;;;;;;5071272;28;20232;-59
2022/09/21 11:11:35;;;;;;;3.17;1.40;;;;;;;;;;5063984;28;20593;-59
2022/09/21 11:14:10;;;;;;;2.83;1.40;;;;;;;;;;5059976;28;20218;-59
2022/09/21 11:16:40;;;;;;;4.17;1.30;;;;;;;;;;5058073;28;20540;-59
2022/09/21 11:19:13;;;;;;;1.10;1.10;;;;;;;;;;5058440;28;20195;-58
2022/09/21 11:21:43;;;;;;;2.50;1.50;;;;;;;;;;5058426;28;20252;-58
2022/09/21 11:24:16;;;;;;;2.60;1.50;;;;;;;;;;5078092;28;20226;-60
2022/09/21 11:26:47;;;;;;;2.97;1.30;;;;;;;;;;5069664;28;20207;-60
2022/09/21 11:29:18;;;;;;;5.73;1.70;;;;;;;;;;5067191;28;20608;-58
2022/09/21 11:31:55;;;;;;;1.73;1.30;;;;;;;;;;5060364;28;20203;-60
2022/09/21 11:34:31;;;;;;;2.53;1.20;;;;;;;;;;5071463;28;20232;-60
2022/09/21 11:37:09;;;;;;;2.37;1.60;;;;;;;;;;5064830;28;20203;-60
2022/09/21 11:39:43;;;;;;;1.73;1.43;;;;;;;;;;5071457;28;20199;-58
2022/09/21 11:42:17;;;;;;;4.33;1.43;;;;;;;;;;5066104;28;20213;-63
2022/09/21 11:44:52;;;;;;;3.00;1.37;;;;;;;;;;5062386;28;20233;-59
2022/09/21 11:47:37;;;;;;;4.07;1.63;;;;;;;;;;5070410;28;20577;-59
2022/09/21 11:50:17;;;;;;;3.37;1.50;;;;;;;;;;5068018;28;20207;-57
2022/09/21 11:53:06;;;;;;;1.10;1.00;;;;;;;;;;5058432;28;20199;-59
2022/09/21 11:55:51;;;;;;;2.93;1.20;;;;;;;;;;5065597;28;20234;-57
2022/09/21 11:58:24;;;;;;;1.97;1.40;;;;;;;;;;5066192;28;20195;-57
2022/09/21 12:01:01;;;;;;;2.00;1.40;;;;;;;;;;5065761;28;20243;-57
2022/09/21 12:03:44;;;;;;;2.83;1.23;;;;;;;;;;5053873;28;20219;-57
2022/09/21 12:06:24;;;;;;;3.87;1.27;;;;;;;;;;5055550;28;20222;-57
2022/09/21 12:09:07;;;;;;;2.30;1.20;;;;;;;;;;5053834;28;20586;-57
2022/09/21 12:11:38;;;;;;;5.50;1.30;;;;;;;;;;5058435;28;20287;-57
2022/09/21 12:14:11;;;;;;;2.60;1.43;;;;;;;;;;5058621;28;20215;-57
2022/09/21 12:16:44;;;;;;;1.47;1.33;;;;;;;;;;5063864;28;20198;-57
2022/09/21 12:19:19;;;;;;;2.40;1.17;;;;;;;;;;5057988;28;20217;-57
2022/09/21 12:21:48;;;;;;;2.07;1.20;;;;;;;;;;5048717;28;20199;-57
2022/09/21 12:24:19;;;;;;;2.57;1.17;;;;;;;;;;5055943;28;20223;-57
2022/09/21 12:26:49;;;;;;;3.03;1.40;;;;;;;;;;5058391;28;20206;-57
2022/09/21 12:29:19;;;;;;;1.47;1.17;;;;;;;;;;5058366;28;20214;-57
2022/09/21 12:31:53;;;;;;;3.73;1.13;;;;;;;;;;5058483;28;20203;-57
2022/09/21 12:34:24;;;;;;;1.00;0.90;;;;;;;;;;5056276;28;20214;-59
2022/09/21 12:36:58;;;;;;;2.73;1.40;;;;;;;;;;5050873;28;20239;-57
2022/09/21 12:39:29;;;;;;;1.67;1.30;;;;;;;;;;5056671;28;20201;-57
2022/09/21 12:42:00;;;;;;;2.17;1.23;;;;;;;;;;5046261;28;20209;-57
2022/09/21 12:44:32;;;;;;;5.03;1.20;;;;;;;;;;5056667;28;20690;-58
2022/09/21 12:47:08;;;;;;;1.33;1.00;;;;;;;;;;5057628;28;20206;-58
2022/09/21 12:49:39;;;;;;;1.90;1.00;;;;;;;;;;5051865;28;20587;-58
2022/09/21 12:52:07;;;;;;;1.70;1.30;;;;;;;;;;5057538;28;20199;-58
2022/09/21 12:54:38;;;;;;;2.33;1.30;;;;;;;;;;5050757;28;20241;-58
2022/09/21 12:57:20;;;;;;;3.93;1.40;;;;;;;;;;5058260;28;20210;-57
2022/09/21 13:00:10;;;;;;;4.93;1.20;;;;;;;;;;5056957;28;20198;-58
2022/09/21 13:02:43;;;;;;;1.50;1.10;;;;;;;;;;5047529;28;20283;-58
2022/09/21 13:05:21;;;;;;;4.47;1.30;;;;;;;;;;5055716;28;20225;-57
2022/09/21 13:08:05;;;;;;;3.40;1.30;;;;;;;;;;5055707;28;20199;-56
2022/09/21 13:10:53;;;;;;;1.60;1.50;;;;;;;;;;5054154;28;20195;-56
2022/09/21 13:13:27;;;;;;;3.10;1.40;;;;;;;;;;5049660;28;20266;-57
2022/09/21 13:15:58;;;;;;;2.73;1.47;;;;;;;;;;5055307;28;20199;-57
2022/09/21 13:18:28;;;;;;;1.77;1.07;;;;;;;;;;5063468;28;20550;-56
2022/09/21 13:21:14;;;;;;;2.50;1.13;;;;;;;;;;5056238;28;20198;-56
2022/09/21 13:23:42;;;;;;;1.30;1.20;;;;;;;;;;5053691;28;20581;-56
2022/09/21 13:26:11;;;;;;;1.87;1.13;;;;;;;;;;5064239;28;20201;-56
2022/09/21 13:28:41;;;;;;;2.63;1.27;;;;;;;;;;5063928;28;20210;-55
2022/09/21 13:31:28;;;;;;;1.50;1.03;;;;;;;;;;5070249;28;20221;-56
2022/09/21 13:34:22;;;;;;;1.37;1.03;;;;;;;;;;5069204;28;20214;-56
2022/09/21 13:37:05;;;;;;;1.37;1.10;;;;;;;;;;5055869;28;20662;-56
2022/09/21 13:39:33;;;;;;;2.30;1.20;;;;;;;;;;5066296;28;20194;-56
2022/09/21 13:42:21;;;;;;;3.57;1.20;;;;;;;;;;5063057;28;20659;-56
2022/09/21 13:44:49;;;;;;;2.87;1.57;;;;;;;;;;5068816;28;20217;-56
2022/09/21 13:47:27;;;;;;;2.67;1.30;;;;;;;;;;5076705;28;20203;-56
2022/09/21 13:49:57;;;;;;;3.80;1.07;;;;;;;;;;5071989;28;20221;-56
2022/09/21 13:52:30;;;;;;;1.37;1.00;;;;;;;;;;5073667;28;20203;-56
2022/09/21 13:54:59;;;;;;;2.47;1.10;;;;;;;;;;5058225;28;20245;-56
2022/09/21 13:57:31;;;;;;;1.10;1.00;;;;;;;;;;5065715;28;20550;-56
2022/09/21 14:00:04;;;;;;;3.90;1.60;;;;;;;;;;5068455;28;20201;-56
2022/09/21 14:02:33;;;;;;;3.53;1.10;;;;;;;;;;5059098;28;20203;-56
2022/09/21 14:05:07;;;;;;;3.20;0.93;;;;;;;;;;5056890;28;20254;-56
2022/09/21 14:07:36;;;;;;;1.33;1.10;;;;;;;;;;5066832;28;20240;-56
2022/09/21 14:10:07;;;;;;;2.00;1.10;;;;;;;;;;5062887;28;20671;-56
2022/09/21 14:12:38;;;;;;;6.43;1.10;;;;;;;;;;5072566;28;20218;-56
2022/09/21 14:15:31;;;;;;;2.13;1.17;;;;;;;;;;5075970;28;20693;-56
2022/09/21 14:18:11;;;;;;;1.87;1.20;;;;;;;;;;5041810;28;20199;-56
2022/09/21 14:20:41;;;;;;;3.00;1.07;;;;;;;;;;5068432;28;20217;-56
2022/09/21 14:23:26;;;;;;;2.37;1.30;;;;;;;;;;5056306;28;20205;-56
2022/09/21 14:25:55;;;;;;;1.10;1.00;;;;;;;;;;5067791;28;20198;-56
2022/09/21 14:28:35;;;;;;;2.87;1.30;;;;;;;;;;5064032;28;20643;-56
2022/09/21 14:31:06;;;;;;;1.50;1.07;;;;;;;;;;5062292;28;20221;-56
2022/09/21 14:33:40;;;;;;;2.60;1.33;;;;;;;;;;5078839;28;20226;-56
2022/09/21 14:36:15;;;;;;;3.17;1.17;;;;;;;;;;5072067;28;20204;-56
2022/09/21 14:38:48;;;;;;;2.40;1.10;;;;;;;;;;5063854;28;20202;-56
2022/09/21 14:41:21;;;;;;;1.70;1.13;;;;;;;;;;5066685;28;20228;-56
2022/09/21 14:43:52;;;;;;;2.93;0.97;;;;;;;;;;5071810;28;20218;-56
2022/09/21 14:46:36;;;;;;;2.23;1.20;;;;;;;;;;5072013;28;20198;-56
2022/09/21 14:49:10;;;;;;;1.07;0.87;;;;;;;;;;5071159;28;20198;-56
2022/09/21 14:51:44;;;;;;;1.40;1.00;;;;;;;;;;5066251;28;20198;-56
2022/09/21 14:54:20;;;;;;;3.70;1.00;;;;;;;;;;5068390;28;20270;-56
2022/09/21 14:56:54;;;;;;;2.37;1.10;;;;;;;;;;5066953;28;20208;-56
2022/09/21 14:59:28;;;;;;;1.43;1.00;;;;;;;;;;5066375;28;20205;-57
2022/09/21 15:01:58;;;;;;;2.20;1.10;;;;;;;;;;5072663;28;20203;-56
2022/09/21 15:04:41;;;;;;;1.33;1.03;;;;;;;;;;5067952;28;20226;-56
2022/09/21 15:13:02;;;;;;;1.60;1.30;;;;;;;;;;5055718;28;20203;-56
2022/09/21 15:15:34;;;;;;;3.03;1.63;;;;;;;;;;5069093;28;20565;-56
2022/09/21 15:18:02;;;;;;;1.10;1.10;;;;;;;;;;5078596;28;20199;-56
2022/09/21 15:20:31;;;;;;;2.77;1.20;;;;;;;;;;5070073;28;20205;-56